createdAt,value
2023-01-10T00:01:07.047Z,6.40
2023-01-10T00:03:33.819Z,12.07
2023-01-10T00:06:00.635Z,9.37
2023-01-10T00:08:28.262Z,10.23
2023-01-10T00:10:58.313Z,10.10
2023-01-10T00:13:25.427Z,9.07
2023-01-10T00:15:54.198Z,9.50
2023-01-10T00:18:21.461Z,13.50
2023-01-10T00:20:49.591Z,21.07
2023-01-10T00:23:17.272Z,9.57
2023-01-10T00:25:44.033Z,12.27
2023-01-10T00:28:20.340Z,12.60
2023-01-10T00:31:04.328Z,13.03
2023-01-10T00:33:31.847Z,10.33
2023-01-10T00:36:00.235Z,13.73
2023-01-10T00:38:27.336Z,12.27
2023-01-10T00:40:54.230Z,13.73
2023-01-10T00:43:39.724Z,13.27
2023-01-10T00:46:08.904Z,12.57
2023-01-10T00:48:35.837Z,15.60
2023-01-10T00:51:03.244Z,13.27
2023-01-10T00:53:29.889Z,15.37
2023-01-10T00:55:57.128Z,13.27
2023-01-10T00:58:23.935Z,14.77
2023-01-10T01:00:50.661Z,8.97
2023-01-10T01:03:18.692Z,12.00
2023-01-10T01:05:46.522Z,10.27
2023-01-10T01:08:16.660Z,10.53
2023-01-10T01:10:43.782Z,13.97
2023-01-10T01:13:13.814Z,13.17
2023-01-10T01:15:41.076Z,15.17
2023-01-10T01:18:08.622Z,16.37
2023-01-10T01:20:35.338Z,17.67
2023-01-10T01:23:02.251Z,10.53
2023-01-10T01:25:28.900Z,16.57
2023-01-10T01:27:55.688Z,19.70
2023-01-10T01:30:22.716Z,15.13
2023-01-10T01:32:49.533Z,20.73
2023-01-10T01:35:16.891Z,15.23
2023-01-10T01:37:46.850Z,15.07
2023-01-10T01:40:22.655Z,14.77
2023-01-10T01:42:55.459Z,15.00
2023-01-10T01:45:31.535Z,13.13
2023-01-10T01:48:18.857Z,10.73
2023-01-10T01:50:52.155Z,13.50
2023-01-10T01:53:33.664Z,16.43
2023-01-10T01:56:06.758Z,12.80
2023-01-10T01:58:43.013Z,13.37
2023-01-10T02:01:11.619Z,12.40
2023-01-10T02:03:40.034Z,12.87
2023-01-10T02:06:07.636Z,17.13
2023-01-10T02:08:35.205Z,16.40
2023-01-10T02:11:13.901Z,12.37
2023-01-10T02:13:42.214Z,18.93
2023-01-10T02:16:09.627Z,15.93
2023-01-10T02:18:38.328Z,12.57
2023-01-10T02:21:10.935Z,14.73
2023-01-10T02:24:08.516Z,9.40
2023-01-10T02:26:50.180Z,20.97
2023-01-10T02:29:44.656Z,13.13
2023-01-10T02:32:15.830Z,13.50
2023-01-10T02:35:06.503Z,11.80
2023-01-10T02:37:50.656Z,11.20
2023-01-10T02:40:45.492Z,12.50
2023-01-10T02:43:15.968Z,14.30
2023-01-10T02:45:48.751Z,13.60
2023-01-10T02:48:17.975Z,10.00
2023-01-10T02:50:44.630Z,18.23
2023-01-10T02:53:24.063Z,8.93
2023-01-10T02:56:12.851Z,14.77
2023-01-10T02:59:04.798Z,7.77
2023-01-10T03:01:54.424Z,14.10
2023-01-10T03:04:37.486Z,9.90
2023-01-10T03:07:18.475Z,8.83
2023-01-10T03:10:06.480Z,15.17
2023-01-10T03:12:39.477Z,15.10
2023-01-10T03:15:08.432Z,11.93
2023-01-10T03:17:37.909Z,18.40
2023-01-10T03:20:07.313Z,9.70
2023-01-10T03:22:38.538Z,14.37
2023-01-10T03:25:09.475Z,13.30
2023-01-10T03:27:44.157Z,15.77
2023-01-10T03:30:17.159Z,13.37
2023-01-10T03:32:44.265Z,13.80
2023-01-10T03:35:12.686Z,14.37
2023-01-10T03:38:01.460Z,15.37
2023-01-10T03:40:42.928Z,16.80
2023-01-10T03:43:37.566Z,12.43
2023-01-10T03:46:10.674Z,9.87
2023-01-10T03:48:42.354Z,12.03
2023-01-10T03:54:51.071Z,12.07
2023-01-10T03:57:23.961Z,8.83
2023-01-10T03:59:53.808Z,8.43
2023-01-10T04:02:20.993Z,18.10
2023-01-10T04:04:47.728Z,13.13
2023-01-10T04:07:14.414Z,13.47
2023-01-10T04:09:41.070Z,8.00
2023-01-10T04:12:07.769Z,8.33
2023-01-10T04:14:34.484Z,14.97
2023-01-10T04:17:01.203Z,13.33
2023-01-10T04:19:28.137Z,17.23
2023-01-10T04:21:54.791Z,13.10
2023-01-10T04:24:21.545Z,10.97
2023-01-10T04:26:48.506Z,12.97
2023-01-10T04:29:15.226Z,14.30
2023-01-10T04:31:41.963Z,10.53
2023-01-10T04:34:09.461Z,14.33
2023-01-10T04:36:36.848Z,11.73
2023-01-10T04:39:04.618Z,11.97
2023-01-10T04:41:31.471Z,11.77
2023-01-10T04:43:59.162Z,11.07
2023-01-10T04:46:25.947Z,12.27
2023-01-10T04:48:52.679Z,12.30
2023-01-10T04:51:19.356Z,17.47
2023-01-10T04:53:46.083Z,15.10
2023-01-10T04:56:19.937Z,8.10
2023-01-10T04:58:47.617Z,9.77
2023-01-10T05:01:17.426Z,12.93
2023-01-10T05:03:44.282Z,14.30
2023-01-10T05:06:10.939Z,11.67
2023-01-10T05:08:37.686Z,11.83
2023-01-10T05:11:04.551Z,9.73
2023-01-10T05:13:31.250Z,10.97
2023-01-10T05:15:58.677Z,11.87
2023-01-10T05:18:26.894Z,13.90
2023-01-10T05:20:59.177Z,11.27
2023-01-10T05:23:25.858Z,10.13
2023-01-10T05:25:52.556Z,12.00
2023-01-10T05:28:19.189Z,10.50
2023-01-10T05:30:45.945Z,10.37
2023-01-10T05:33:12.608Z,16.13
2023-01-10T05:35:39.319Z,9.60
2023-01-10T05:38:05.977Z,13.67
2023-01-10T05:40:32.660Z,17.33
2023-01-10T05:42:59.282Z,13.93
2023-01-10T05:45:25.960Z,15.53
2023-01-10T05:47:52.596Z,22.83
2023-01-10T05:50:19.204Z,11.93
2023-01-10T05:52:45.808Z,12.13
2023-01-10T05:55:12.468Z,11.43
2023-01-10T05:57:39.213Z,13.20
2023-01-10T06:00:06.669Z,15.30
2023-01-10T06:02:33.557Z,11.77
2023-01-10T06:05:00.238Z,19.70
2023-01-10T06:07:26.879Z,17.67
2023-01-10T06:09:53.576Z,13.77
2023-01-10T06:12:20.219Z,10.63
2023-01-10T06:14:46.860Z,16.10
2023-01-10T06:17:13.803Z,13.10
2023-01-10T06:19:40.493Z,13.67
2023-01-10T06:22:07.338Z,15.07
2023-01-10T06:24:34.049Z,13.67
2023-01-10T06:27:00.755Z,18.70
2023-01-10T06:29:27.384Z,13.73
2023-01-10T06:31:54.152Z,9.43
2023-01-10T06:34:20.825Z,8.63
2023-01-10T06:36:47.556Z,14.23
2023-01-10T06:39:14.209Z,27.40
2023-01-10T06:41:40.851Z,13.37
2023-01-10T06:44:07.818Z,17.70
2023-01-10T06:46:34.648Z,16.60
2023-01-10T06:49:01.425Z,9.73
2023-01-10T06:51:28.071Z,15.37
2023-01-10T06:53:54.753Z,12.97
2023-01-10T06:56:21.386Z,17.93
2023-01-10T06:58:49.848Z,17.23
2023-01-10T07:01:19.464Z,12.07
2023-01-10T07:03:46.532Z,14.80
2023-01-10T07:06:13.378Z,15.53
2023-01-10T07:08:42.119Z,14.33
2023-01-10T07:11:11.586Z,16.80
2023-01-10T07:13:39.028Z,12.77
2023-01-10T07:16:11.831Z,16.17
2023-01-10T07:18:40.529Z,15.40
2023-01-10T07:21:07.551Z,15.43
2023-01-10T07:23:34.473Z,12.63
2023-01-10T07:26:06.062Z,13.07
2023-01-10T07:28:34.565Z,13.90
2023-01-10T07:31:03.152Z,14.60
2023-01-10T07:33:30.295Z,15.27
2023-01-10T07:35:57.722Z,9.23
2023-01-10T07:38:24.371Z,12.83
2023-01-10T07:40:51.123Z,11.67
2023-01-10T07:43:17.833Z,17.77
2023-01-10T07:45:45.017Z,17.63
2023-01-10T07:48:11.712Z,14.83
2023-01-10T07:50:38.735Z,17.37
2023-01-10T07:53:08.177Z,15.27
2023-01-10T07:55:38.869Z,17.57
2023-01-10T07:58:07.971Z,17.23
2023-01-10T08:00:35.665Z,11.63
2023-01-10T08:03:02.574Z,19.67
2023-01-10T08:05:29.480Z,17.03
2023-01-10T08:07:59.893Z,19.47
2023-01-10T08:10:27.187Z,20.67
2023-01-10T08:12:53.855Z,13.63
2023-01-10T08:15:20.683Z,10.67
2023-01-10T08:17:47.391Z,17.50
2023-01-10T08:20:14.209Z,16.23
2023-01-10T08:22:40.914Z,17.20
2023-01-10T08:25:08.110Z,17.93
2023-01-10T08:27:34.898Z,17.73
2023-01-10T08:30:01.504Z,15.97
2023-01-10T08:32:28.256Z,21.47
2023-01-10T08:34:54.979Z,16.00
2023-01-10T08:37:21.606Z,18.83
2023-01-10T08:39:48.217Z,12.83
2023-01-10T08:42:16.906Z,19.03
2023-01-10T08:44:43.607Z,12.30
2023-01-10T08:47:10.418Z,17.90
2023-01-10T08:49:37.095Z,21.77
2023-01-10T08:52:03.788Z,15.13
2023-01-10T08:54:30.488Z,20.73
2023-01-10T08:56:57.156Z,16.97
2023-01-10T08:59:23.770Z,17.23
2023-01-10T09:01:50.753Z,22.97
2023-01-10T09:04:17.509Z,14.43
2023-01-10T09:06:44.255Z,18.93
2023-01-10T09:09:10.927Z,21.43
2023-01-10T09:11:37.575Z,19.50
2023-01-10T09:14:04.275Z,18.23
2023-01-10T09:16:30.920Z,21.10
2023-01-10T09:18:57.705Z,14.87
2023-01-10T09:21:25.076Z,18.43
2023-01-10T09:23:52.225Z,17.33
2023-01-10T09:26:18.878Z,22.13
2023-01-10T09:28:48.885Z,17.03
2023-01-10T09:31:15.777Z,14.43
2023-01-10T09:33:47.143Z,21.33
2023-01-10T09:36:15.468Z,19.63
2023-01-10T09:38:42.373Z,15.93
2023-01-10T09:41:30.868Z,16.83
2023-01-10T09:44:16.099Z,18.53
2023-01-10T09:46:48.205Z,17.10
2023-01-10T09:49:26.749Z,24.10
2023-01-10T09:51:59.002Z,14.47
2023-01-10T09:54:29.890Z,22.03
2023-01-10T09:56:59.504Z,13.37
2023-01-10T09:59:37.495Z,21.63
2023-01-10T10:02:22.069Z,17.23
2023-01-10T10:05:09.431Z,17.33
2023-01-10T10:07:36.386Z,16.77
2023-01-10T10:10:11.858Z,22.97
2023-01-10T10:15:52.796Z,13.67
2023-01-10T10:18:22.242Z,16.37
2023-01-10T10:20:57.544Z,23.07
2023-01-10T10:23:50.698Z,21.73
2023-01-10T10:26:46.905Z,18.57
2023-01-10T10:29:29.749Z,20.07
2023-01-10T10:32:35.703Z,28.83
2023-01-10T10:35:24.481Z,19.67
2023-01-10T10:37:53.551Z,23.20
2023-01-10T10:40:23.121Z,22.30
2023-01-10T10:46:09.854Z,18.90
2023-01-10T10:49:00.372Z,21.53
2023-01-10T10:51:52.360Z,14.80
2023-01-10T10:54:20.184Z,27.13
2023-01-10T10:56:47.946Z,20.37
2023-01-10T10:59:19.599Z,24.90
2023-01-10T11:01:49.581Z,19.57
2023-01-10T11:04:20.944Z,25.43
2023-01-10T11:06:54.251Z,18.20
2023-01-10T11:09:32.410Z,23.07
2023-01-10T11:11:59.417Z,21.10
2023-01-10T11:14:44.461Z,24.17
2023-01-10T11:17:27.609Z,23.93
2023-01-10T11:20:02.260Z,29.70
2023-01-10T11:22:47.028Z,22.57
2023-01-10T11:25:19.510Z,21.27
2023-01-10T11:27:58.107Z,28.23
2023-01-10T11:30:30.983Z,21.50
2023-01-10T11:33:01.552Z,25.90
2023-01-10T11:35:39.119Z,21.67
2023-01-10T11:38:13.469Z,23.93
2023-01-10T11:40:59.201Z,29.57
2023-01-10T11:43:40.639Z,22.93
2023-01-10T11:46:17.687Z,27.93
2023-01-10T11:49:05.436Z,21.80
2023-01-10T11:51:40.198Z,22.60
2023-01-10T11:57:01.162Z,18.87
2023-01-10T11:59:28.797Z,21.20
2023-01-10T12:02:04.736Z,31.40
2023-01-10T12:04:34.319Z,24.30
2023-01-10T12:07:09.361Z,26.53
2023-01-10T12:09:39.500Z,32.37
2023-01-10T12:12:17.552Z,25.80
2023-01-10T12:14:45.783Z,23.83
2023-01-10T12:17:18.926Z,23.03
2023-01-10T12:19:45.819Z,28.37
2023-01-10T12:22:15.831Z,20.77
2023-01-10T12:24:45.378Z,25.93
2023-01-10T12:27:14.200Z,20.03
2023-01-10T12:29:53.282Z,31.20
2023-01-10T12:35:03.275Z,15.57
2023-01-10T12:37:42.408Z,16.60
2023-01-10T12:40:36.036Z,19.40
2023-01-10T12:43:33.650Z,17.57
2023-01-10T12:46:43.505Z,20.40
2023-01-10T12:52:12.656Z,17.53
2023-01-10T12:54:39.917Z,15.60
2023-01-10T12:57:21.656Z,23.17
2023-01-10T12:59:49.429Z,26.20
2023-01-10T13:02:24.120Z,21.53
2023-01-10T13:04:56.927Z,19.67
2023-01-10T13:07:28.652Z,21.17
2023-01-10T13:09:56.242Z,28.60
2023-01-10T13:12:35.425Z,23.47
2023-01-10T13:17:47.652Z,19.40
2023-01-10T13:20:24.210Z,14.30
2023-01-10T13:23:02.920Z,16.13
2023-01-10T13:25:34.928Z,14.40
2023-01-10T13:30:58.834Z,17.20
2023-01-10T13:33:29.381Z,17.57
2023-01-10T13:38:57.697Z,16.87
2023-01-10T13:42:03.463Z,12.40
2023-01-10T13:44:30.699Z,19.60
2023-01-10T13:46:57.740Z,14.73
2023-01-10T13:49:26.553Z,18.33
2023-01-10T13:52:12.309Z,14.33
2023-01-10T13:54:55.619Z,16.63
2023-01-10T13:57:44.354Z,14.80
2023-01-10T14:00:39.989Z,18.97
2023-01-10T14:03:07.095Z,19.27
2023-01-10T14:05:37.210Z,22.13
2023-01-10T14:08:15.898Z,14.83
2023-01-10T14:10:42.980Z,19.10
2023-01-10T14:13:17.137Z,23.03
2023-01-10T14:15:46.029Z,17.47
2023-01-10T14:18:24.371Z,15.53
2023-01-10T14:21:02.432Z,16.27
2023-01-10T14:23:32.251Z,16.37
2023-01-10T14:25:59.418Z,19.17
2023-01-10T14:28:28.182Z,10.83
2023-01-10T14:31:10.071Z,14.80
2023-01-10T14:33:37.938Z,16.43
2023-01-10T14:36:16.048Z,16.13
2023-01-10T14:38:44.965Z,24.00
2023-01-10T14:41:24.890Z,10.00
2023-01-10T14:43:51.916Z,26.07
2023-01-10T14:46:37.911Z,19.60
2023-01-10T14:49:18.968Z,20.80
2023-01-10T14:51:50.206Z,18.50
2023-01-10T14:54:18.341Z,14.20
2023-01-10T14:56:46.594Z,15.07
2023-01-10T14:59:23.919Z,16.27
2023-01-10T15:01:52.084Z,20.80
2023-01-10T15:04:20.572Z,13.40
2023-01-10T15:07:02.921Z,23.23
2023-01-10T15:09:31.419Z,20.67
2023-01-10T15:12:00.696Z,12.33
2023-01-10T15:14:28.770Z,16.17
2023-01-10T15:17:00.062Z,14.10
2023-01-10T15:19:33.348Z,17.70
2023-01-10T15:22:04.738Z,12.57
2023-01-10T15:24:36.145Z,16.50
2023-01-10T15:27:11.749Z,15.90
2023-01-10T15:29:44.490Z,10.43
2023-01-10T15:32:13.146Z,18.30
2023-01-10T15:34:42.176Z,12.77
2023-01-10T15:37:16.637Z,12.83
2023-01-10T15:39:47.418Z,14.37
2023-01-10T15:42:14.786Z,19.90
2023-01-10T15:44:45.892Z,14.93
2023-01-10T15:47:31.806Z,16.97
2023-01-10T15:49:58.981Z,21.23
2023-01-10T15:52:26.137Z,12.27
2023-01-10T15:54:56.682Z,13.77
2023-01-10T15:57:23.950Z,24.57
2023-01-10T15:59:51.417Z,9.07
2023-01-10T16:02:22.515Z,15.00
2023-01-10T16:04:50.400Z,8.53
2023-01-10T16:07:19.896Z,12.93
2023-01-10T16:09:51.357Z,12.03
2023-01-10T16:12:44.067Z,7.90
2023-01-10T16:15:19.408Z,11.30
2023-01-10T16:17:47.073Z,13.83
2023-01-10T16:20:17.831Z,12.03
2023-01-10T16:22:45.112Z,9.70
2023-01-10T16:25:16.407Z,12.20
2023-01-10T16:27:43.588Z,7.83
2023-01-10T16:30:26.930Z,12.37
2023-01-10T16:32:55.012Z,14.83
2023-01-10T16:35:22.130Z,12.53
2023-01-10T16:37:49.546Z,10.93
2023-01-10T16:40:18.142Z,15.77
2023-01-10T16:43:03.790Z,15.63
2023-01-10T16:45:31.069Z,12.50
2023-01-10T16:47:58.169Z,13.27
2023-01-10T16:50:25.283Z,16.80
2023-01-10T16:52:52.377Z,9.93
2023-01-10T16:55:28.502Z,13.03
2023-01-10T16:57:56.378Z,11.23
2023-01-10T17:00:23.626Z,6.77
2023-01-10T17:02:50.803Z,12.60
2023-01-10T17:05:17.951Z,10.50
2023-01-10T17:07:45.496Z,12.77
2023-01-10T17:10:12.586Z,12.40
2023-01-10T17:12:40.297Z,8.17
2023-01-10T17:15:08.447Z,10.67
2023-01-10T17:17:35.636Z,14.63
2023-01-10T17:20:02.914Z,13.57
2023-01-10T17:22:30.508Z,16.00
2023-01-10T17:24:57.666Z,17.13
2023-01-10T17:27:24.828Z,9.07
2023-01-10T17:29:51.898Z,10.33
2023-01-10T17:32:18.931Z,12.43
2023-01-10T17:34:45.998Z,9.30
2023-01-10T17:37:13.081Z,11.30
2023-01-10T17:39:40.289Z,13.50
2023-01-10T17:42:07.724Z,11.57
2023-01-10T17:44:34.923Z,12.47
2023-01-10T17:47:03.350Z,16.83
2023-01-10T17:49:30.413Z,20.07
2023-01-10T17:51:58.751Z,11.37
2023-01-10T17:54:26.871Z,11.20
2023-01-10T17:56:54.137Z,12.37
2023-01-10T17:59:21.917Z,16.23
2023-01-10T18:01:49.155Z,10.87
2023-01-10T18:04:16.314Z,17.13
2023-01-10T18:06:43.452Z,11.17
2023-01-10T18:09:10.931Z,14.00
2023-01-10T18:11:38.016Z,15.63
2023-01-10T18:14:25.119Z,7.67
2023-01-10T18:16:52.243Z,13.30
2023-01-10T18:19:19.358Z,13.23
2023-01-10T18:21:48.021Z,9.03
2023-01-10T18:24:15.562Z,11.50
2023-01-10T18:26:42.613Z,14.10
2023-01-10T18:29:09.674Z,13.90
2023-01-10T18:31:36.900Z,12.20
2023-01-10T18:36:40.094Z,8.93
2023-01-10T18:39:07.276Z,11.27
2023-01-10T18:41:34.344Z,10.40
2023-01-10T18:44:01.438Z,11.47
2023-01-10T18:46:28.991Z,11.13
2023-01-10T18:48:56.158Z,12.83
2023-01-10T18:51:24.770Z,11.43
2023-01-10T18:53:53.056Z,10.43
2023-01-10T18:56:20.584Z,7.57
2023-01-10T18:58:47.764Z,10.33
2023-01-10T19:01:16.286Z,10.10
2023-01-10T19:03:43.561Z,10.80
2023-01-10T19:06:11.885Z,11.00
2023-01-10T19:08:39.640Z,9.13
2023-01-10T19:11:13.828Z,11.90
2023-01-10T19:13:42.071Z,13.57
2023-01-10T19:16:10.196Z,6.87
2023-01-10T19:18:37.328Z,14.93
2023-01-10T19:23:48.169Z,6.93
2023-01-10T19:26:15.415Z,11.80
2023-01-10T19:28:43.343Z,6.00
2023-01-10T19:31:15.104Z,5.57
2023-01-10T19:33:43.947Z,8.03
2023-01-10T19:36:11.525Z,12.37
2023-01-10T19:38:38.793Z,10.20
2023-01-10T19:41:06.030Z,6.47
2023-01-10T19:43:34.262Z,10.97
2023-01-10T19:46:05.931Z,8.87
2023-01-10T19:48:37.685Z,9.43
2023-01-10T19:51:05.780Z,9.73
2023-01-10T19:53:34.365Z,7.73
2023-01-10T19:56:02.296Z,7.07
2023-01-10T19:58:29.710Z,9.80
2023-01-10T20:00:56.849Z,5.40
2023-01-10T20:03:24.409Z,3.87
2023-01-10T20:05:51.524Z,6.30
2023-01-10T20:08:18.840Z,4.47
2023-01-10T20:10:45.943Z,3.03
2023-01-10T20:13:13.027Z,4.77
2023-01-10T20:15:40.202Z,4.47
2023-01-10T20:18:07.364Z,6.07
2023-01-10T20:20:34.945Z,5.37
2023-01-10T20:23:02.055Z,3.57
2023-01-10T20:25:40.136Z,4.53
2023-01-10T20:28:07.238Z,3.30
2023-01-10T20:30:34.299Z,4.50
2023-01-10T20:33:01.556Z,3.93
2023-01-10T20:35:28.703Z,3.30
2023-01-10T20:37:55.749Z,3.57
2023-01-10T20:40:24.945Z,3.53
2023-01-10T20:42:52.043Z,1.90
2023-01-10T20:45:19.168Z,2.63
2023-01-10T20:47:50.599Z,3.43
2023-01-10T20:50:17.762Z,2.40
2023-01-10T20:52:44.881Z,7.67
2023-01-10T20:55:11.904Z,3.63
2023-01-10T20:57:38.956Z,2.17
2023-01-10T21:00:06.233Z,3.07
2023-01-10T21:02:33.428Z,3.37
2023-01-10T21:05:00.521Z,5.97
2023-01-10T21:07:27.721Z,3.33
2023-01-10T21:09:54.797Z,2.47
2023-01-10T21:12:26.784Z,2.10
2023-01-10T21:14:54.605Z,3.63
2023-01-10T21:17:22.049Z,3.40
2023-01-10T21:19:49.208Z,2.90
2023-01-10T21:22:16.286Z,3.90
2023-01-10T21:24:43.355Z,3.37
2023-01-10T21:27:10.931Z,4.20
2023-01-10T21:29:38.005Z,3.47
2023-01-10T21:32:06.016Z,5.10
2023-01-10T21:34:33.904Z,3.03
2023-01-10T21:37:00.986Z,5.10
2023-01-10T21:39:28.028Z,3.27
2023-01-10T21:42:13.576Z,4.37
2023-01-10T21:44:40.614Z,6.67
2023-01-10T21:47:08.045Z,3.33
2023-01-10T21:49:35.162Z,2.50
2023-01-10T21:52:02.280Z,4.10
2023-01-10T21:54:29.402Z,2.90
2023-01-10T21:56:56.461Z,5.17
2023-01-10T21:59:23.516Z,2.60
2023-01-10T22:01:50.547Z,5.73
2023-01-10T22:04:17.913Z,2.10
2023-01-10T22:06:45.108Z,1.70
2023-01-10T22:09:12.239Z,3.10
2023-01-10T22:11:39.339Z,4.13
2023-01-10T22:14:06.397Z,4.23
2023-01-10T22:16:33.510Z,2.93
2023-01-10T22:19:00.631Z,2.77
2023-01-10T22:21:27.768Z,2.47
2023-01-10T22:23:54.919Z,3.50
2023-01-10T22:26:21.987Z,1.73
2023-01-10T22:28:49.092Z,2.57
2023-01-10T22:31:16.560Z,3.00
2023-01-10T22:33:43.635Z,3.03
2023-01-10T22:36:18.853Z,1.77
2023-01-10T22:38:46.382Z,2.63
2023-01-10T22:41:16.753Z,2.03
2023-01-10T22:43:45.265Z,2.13
2023-01-10T22:46:15.389Z,2.53
2023-01-10T22:48:43.011Z,2.37
2023-01-10T22:51:10.064Z,1.80
2023-01-10T22:53:37.132Z,1.60
2023-01-10T22:56:05.492Z,3.10
2023-01-10T22:58:32.863Z,2.20
2023-01-10T23:00:59.906Z,3.00
2023-01-10T23:03:27.113Z,1.40
2023-01-10T23:05:57.991Z,1.47
2023-01-10T23:08:25.549Z,2.90
2023-01-10T23:10:54.013Z,2.20
2023-01-10T23:13:21.580Z,2.33
2023-01-10T23:15:55.972Z,5.47
2023-01-10T23:18:23.080Z,2.83
2023-01-10T23:20:50.128Z,4.07
2023-01-10T23:23:17.175Z,1.73
2023-01-10T23:25:44.520Z,2.40
2023-01-10T23:28:11.738Z,1.83
2023-01-10T23:30:38.879Z,3.03
2023-01-10T23:33:05.968Z,2.30
2023-01-10T23:35:33.057Z,1.40
2023-01-10T23:38:00.131Z,1.63
2023-01-10T23:40:27.200Z,3.33
2023-01-10T23:42:54.272Z,3.53
2023-01-10T23:45:21.335Z,1.47
2023-01-10T23:47:48.387Z,2.40
2023-01-10T23:50:15.698Z,2.17
2023-01-10T23:52:42.793Z,1.63
2023-01-10T23:55:09.997Z,1.60
2023-01-10T23:57:37.049Z,2.20
